Time;durP1;ratioP1;P1;durP2;ratioP2;P2;SDS_P1;SDS_P2;PMS_P1;PMS_P2;Temp;Humidity;BMP_temperature;BMP_pressure;BME280_temperature;BME280_humidity;BME280_pressure;Samples;Min_cycle;Max_cycle;Signal;HPM_P1;HPM_P2
2023/01/05 00:00:51;;;;;;;1.60;1.50;;;9.10;99.90;;;;;;472195;251;27930;-79
2023/01/05 00:02:52;;;;;;;1.57;1.47;;;9.10;99.90;;;;;;472224;250;27617;-79
2023/01/05 00:04:53;;;;;;;1.40;1.30;;;9.10;99.90;;;;;;472172;250;28210;-78
2023/01/05 00:06:54;;;;;;;2.73;1.30;;;9.10;99.90;;;;;;472198;250;28047;-78
2023/01/05 00:08:56;;;;;;;1.30;1.30;;;9.10;99.90;;;;;;472192;250;27894;-79
2023/01/05 00:22:30;;;;;;;1.30;1.20;;;9.10;99.90;;;;;;472237;252;27830;-79
2023/01/05 00:24:32;;;;;;;1.50;1.40;;;9.20;99.90;;;;;;472201;250;28213;-79
2023/01/05 00:26:33;;;;;;;1.60;1.50;;;9.20;99.90;;;;;;472220;250;28543;-80
2023/01/05 00:28:34;;;;;;;1.40;1.30;;;9.20;99.90;;;;;;472211;250;28345;-79
2023/01/05 00:30:35;;;;;;;1.93;1.50;;;9.20;99.90;;;;;;472221;250;27923;-79
2023/01/05 00:32:37;;;;;;;1.40;1.40;;;9.20;99.90;;;;;;472209;250;28035;-80
2023/01/05 00:34:38;;;;;;;3.90;1.10;;;9.20;99.90;;;;;;472203;250;27807;-79
2023/01/05 00:36:39;;;;;;;1.63;1.53;;;9.20;99.90;;;;;;472214;250;27573;-79
2023/01/05 00:38:40;;;;;;;1.83;1.73;;;9.20;99.90;;;;;;472177;251;27590;-79
2023/01/05 00:40:42;;;;;;;1.70;1.60;;;9.20;99.90;;;;;;472208;250;28010;-80
2023/01/05 00:42:43;;;;;;;1.83;1.73;;;9.20;99.90;;;;;;472231;250;28513;-79
2023/01/05 00:44:44;;;;;;;2.03;1.73;;;9.30;99.90;;;;;;472187;250;28386;-79
2023/01/05 00:46:45;;;;;;;2.90;2.07;;;9.30;99.90;;;;;;472224;251;28263;-79
2023/01/05 00:48:47;;;;;;;2.13;2.03;;;9.30;99.90;;;;;;472242;250;28633;-79
2023/01/05 00:50:48;;;;;;;2.00;1.90;;;9.30;99.90;;;;;;472256;250;28436;-79
2023/01/05 00:52:49;;;;;;;2.50;2.30;;;9.40;99.90;;;;;;472215;250;27947;-81
2023/01/05 00:54:50;;;;;;;3.40;2.30;;;9.40;99.90;;;;;;472233;250;27843;-80
2023/01/05 00:56:52;;;;;;;3.20;2.37;;;9.40;99.90;;;;;;472237;250;28109;-80
2023/01/05 00:58:54;;;;;;;2.33;2.20;;;9.40;99.90;;;;;;472248;250;27982;-79
2023/01/05 01:00:54;;;;;;;2.87;2.30;;;9.40;99.90;;;;;;472170;251;28011;-79
2023/01/05 01:02:55;;;;;;;1.90;1.80;;;9.40;99.90;;;;;;472145;251;28014;-79
2023/01/05 01:04:57;;;;;;;1.90;1.80;;;9.40;99.90;;;;;;472121;250;27775;-79
2023/01/05 01:06:58;;;;;;;3.07;1.90;;;9.40;99.90;;;;;;472025;250;28094;-79
2023/01/05 01:08:59;;;;;;;1.90;1.80;;;9.40;99.90;;;;;;472103;250;28433;-80
2023/01/05 01:11:00;;;;;;;4.87;2.30;;;9.40;99.90;;;;;;472186;250;28011;-79
2023/01/05 01:13:02;;;;;;;2.30;2.10;;;9.40;99.90;;;;;;472204;250;27845;-79
2023/01/05 01:15:03;;;;;;;1.80;1.70;;;9.40;99.90;;;;;;472187;250;28046;-79
2023/01/05 01:17:04;;;;;;;2.10;1.90;;;9.40;99.90;;;;;;472217;250;28122;-80
2023/01/05 01:19:05;;;;;;;2.30;1.97;;;9.40;99.90;;;;;;472240;250;28181;-80
2023/01/05 01:21:07;;;;;;;1.70;1.60;;;9.40;99.90;;;;;;472213;250;28272;-79
2023/01/05 01:23:08;;;;;;;1.70;1.60;;;9.40;99.90;;;;;;472178;250;28196;-79
2023/01/05 01:25:09;;;;;;;1.80;1.70;;;9.40;99.90;;;;;;472182;251;28554;-79
2023/01/05 01:27:10;;;;;;;1.50;1.40;;;9.40;99.90;;;;;;472181;250;28267;-79
2023/01/05 01:29:12;;;;;;;1.57;1.47;;;9.40;99.90;;;;;;472241;247;28447;-79
2023/01/05 01:31:13;;;;;;;1.70;1.60;;;9.40;99.90;;;;;;472216;250;28035;-80
2023/01/05 01:33:14;;;;;;;1.93;1.83;;;9.40;99.90;;;;;;472192;250;28007;-80
2023/01/05 01:35:15;;;;;;;1.60;1.50;;;9.40;99.90;;;;;;472179;250;27740;-79
2023/01/05 01:37:17;;;;;;;1.00;1.00;;;9.40;99.90;;;;;;472166;251;28142;-80
2023/01/05 01:39:18;;;;;;;2.70;1.27;;;9.40;99.90;;;;;;472203;250;28024;-79
2023/01/05 01:41:19;;;;;;;1.47;1.40;;;9.40;99.90;;;;;;472208;250;28142;-79
2023/01/05 01:43:20;;;;;;;1.10;1.10;;;9.40;99.90;;;;;;472095;252;28015;-79
2023/01/05 01:45:22;;;;;;;1.17;1.17;;;9.40;99.90;;;;;;472209;250;27788;-79
2023/01/05 01:47:23;;;;;;;1.60;1.37;;;9.40;99.90;;;;;;472166;251;27807;-79
2023/01/05 01:49:24;;;;;;;1.20;1.20;;;9.40;99.90;;;;;;472249;250;28022;-80
2023/01/05 01:51:25;;;;;;;1.23;1.23;;;9.40;99.90;;;;;;472243;250;28100;-79
2023/01/05 01:53:27;;;;;;;1.00;1.00;;;9.40;99.90;;;;;;472226;250;28014;-80
2023/01/05 01:55:28;;;;;;;1.10;1.10;;;9.40;99.90;;;;;;472195;251;27903;-79
2023/01/05 01:57:29;;;;;;;1.23;1.23;;;9.40;99.90;;;;;;472195;250;27958;-79
2023/01/05 01:59:30;;;;;;;1.57;1.47;;;9.40;99.90;;;;;;472212;251;28574;-81
2023/01/05 02:01:32;;;;;;;1.47;1.40;;;9.40;99.90;;;;;;472184;250;28237;-79
2023/01/05 02:03:33;;;;;;;1.40;1.30;;;9.40;99.90;;;;;;472211;252;28589;-79
2023/01/05 02:05:36;;;;;;;1.70;1.60;;;9.40;99.90;;;;;;472186;250;28502;-79
2023/01/05 02:07:35;;;;;;;1.53;1.43;;;9.40;99.90;;;;;;472136;252;28239;-80
2023/01/05 02:09:37;;;;;;;1.70;1.60;;;9.40;99.90;;;;;;472202;250;27835;-81
2023/01/05 02:11:38;;;;;;;1.87;1.60;;;9.40;99.90;;;;;;472227;250;27646;-78
2023/01/05 02:13:39;;;;;;;1.93;1.80;;;9.50;99.90;;;;;;472203;250;27978;-79
2023/01/05 02:15:40;;;;;;;1.90;1.80;;;9.50;99.90;;;;;;472176;250;27944;-79
2023/01/05 02:17:42;;;;;;;3.23;1.97;;;9.50;99.90;;;;;;472185;250;28014;-79
2023/01/05 02:19:43;;;;;;;2.87;2.17;;;9.50;99.90;;;;;;472197;251;27958;-80
2023/01/05 02:21:44;;;;;;;2.00;1.90;;;9.60;99.90;;;;;;472216;250;28021;-79
2023/01/05 02:23:46;;;;;;;1.90;1.80;;;9.50;99.90;;;;;;472213;250;27782;-80
2023/01/05 02:25:47;;;;;;;4.13;1.90;;;9.50;99.90;;;;;;472194;251;27921;-79
2023/01/05 02:27:48;;;;;;;2.37;2.27;;;9.50;99.90;;;;;;472245;250;27900;-79
2023/01/05 02:29:49;;;;;;;2.97;1.93;;;9.60;99.90;;;;;;472242;250;27902;-80
2023/01/05 02:31:50;;;;;;;1.97;1.87;;;9.60;99.90;;;;;;472259;250;27722;-79
2023/01/05 02:33:54;;;;;;;2.33;1.90;;;9.60;99.90;;;;;;472217;250;28078;-79
2023/01/05 02:35:56;;;;;;;2.97;2.30;;;9.60;99.90;;;;;;472223;250;28394;-80
2023/01/05 02:37:57;;;;;;;3.20;1.70;;;9.60;99.90;;;;;;472257;250;27762;-79
2023/01/05 02:39:58;;;;;;;2.17;1.83;;;9.60;99.90;;;;;;472231;247;28012;-80
2023/01/05 02:41:59;;;;;;;2.10;1.70;;;9.60;99.90;;;;;;472207;251;28016;-80
2023/01/05 02:44:01;;;;;;;1.90;1.80;;;9.60;99.90;;;;;;472249;251;28050;-79
2023/01/05 02:46:02;;;;;;;1.80;1.70;;;9.60;99.90;;;;;;472239;251;27950;-79
2023/01/05 02:48:03;;;;;;;2.27;2.00;;;9.60;99.90;;;;;;472255;250;27904;-79
2023/01/05 02:50:04;;;;;;;2.40;1.97;;;9.60;99.90;;;;;;472238;250;27987;-79
2023/01/05 02:52:06;;;;;;;2.00;1.80;;;9.60;99.90;;;;;;472238;250;28004;-79
2023/01/05 02:54:07;;;;;;;2.40;1.70;;;9.60;99.90;;;;;;472229;250;27653;-79
2023/01/05 02:56:08;;;;;;;2.70;1.70;;;9.60;99.90;;;;;;472284;250;28026;-81
2023/01/05 02:58:09;;;;;;;1.87;1.77;;;9.60;99.90;;;;;;472210;250;27852;-79
2023/01/05 03:00:11;;;;;;;2.60;2.40;;;9.60;99.90;;;;;;472269;251;28085;-79
2023/01/05 03:02:12;;;;;;;3.07;1.80;;;9.60;99.90;;;;;;472240;250;28181;-79
2023/01/05 03:04:13;;;;;;;2.10;1.90;;;9.60;99.90;;;;;;472238;250;27780;-80
2023/01/05 03:06:14;;;;;;;1.90;1.80;;;9.70;99.90;;;;;;472259;250;28433;-80
2023/01/05 03:08:24;;;;;;;1.67;1.57;;;9.70;99.90;;;;;;472253;250;28563;-79
2023/01/05 03:14:56;;;;;;;1.90;1.40;;;9.80;99.90;;;;;;472196;252;27927;-78
2023/01/05 03:16:57;;;;;;;1.60;1.50;;;9.70;99.90;;;;;;472211;250;27700;-79
2023/01/05 03:21:18;;;;;;;2.57;1.43;;;9.70;99.90;;;;;;472175;252;28440;-79
2023/01/05 03:37:17;;;;;;;2.93;1.53;;;9.80;99.90;;;;;;471913;252;28529;-80
2023/01/05 03:39:18;;;;;;;6.70;1.80;;;9.80;99.90;;;;;;472047;250;28558;-79
2023/01/05 03:41:20;;;;;;;6.00;1.77;;;9.70;99.90;;;;;;472172;250;28304;-79
2023/01/05 03:43:21;;;;;;;4.20;1.80;;;9.70;99.90;;;;;;472207;250;29372;-79
2023/01/05 03:45:22;;;;;;;9.30;1.97;;;9.70;99.90;;;;;;472080;251;28012;-79
2023/01/05 03:47:23;;;;;;;5.60;1.93;;;9.60;99.90;;;;;;472223;250;27634;-80
2023/01/05 03:49:25;;;;;;;6.70;2.70;;;9.60;99.90;;;;;;472205;250;27909;-79
2023/01/05 03:51:26;;;;;;;7.37;1.87;;;9.60;99.90;;;;;;472180;246;27823;-80
2023/01/05 03:53:27;;;;;;;7.73;2.17;;;9.60;99.90;;;;;;472212;250;27983;-79
2023/01/05 03:55:28;;;;;;;6.03;2.00;;;9.50;99.90;;;;;;472215;250;27562;-79
2023/01/05 03:57:30;;;;;;;5.33;1.80;;;9.50;99.90;;;;;;472223;246;27916;-79
2023/01/05 03:59:31;;;;;;;8.93;2.27;;;9.40;99.90;;;;;;472198;250;28184;-79
2023/01/05 04:01:32;;;;;;;11.27;2.40;;;9.40;99.90;;;;;;472206;247;27990;-78
2023/01/05 04:03:33;;;;;;;14.77;2.77;;;9.40;99.90;;;;;;472182;251;27998;-80
2023/01/05 04:05:35;;;;;;;15.53;2.83;;;9.40;99.90;;;;;;472238;252;27931;-80
2023/01/05 04:07:36;;;;;;;20.00;2.80;;;9.30;99.90;;;;;;472226;250;27981;-80
2023/01/05 04:09:37;;;;;;;13.57;3.10;;;9.30;99.90;;;;;;472216;251;27891;-79
2023/01/05 04:11:38;;;;;;;16.00;3.20;;;9.20;99.90;;;;;;471965;252;28360;-80
2023/01/05 04:13:40;;;;;;;15.73;3.20;;;9.20;99.90;;;;;;472260;250;29042;-79
2023/01/05 04:15:41;;;;;;;15.60;3.07;;;9.20;99.90;;;;;;472222;250;28255;-79
2023/01/05 04:17:42;;;;;;;8.20;2.50;;;9.10;99.90;;;;;;472196;250;27966;-80
2023/01/05 04:19:43;;;;;;;14.83;2.70;;;9.10;99.90;;;;;;472217;250;27915;-79
2023/01/05 04:21:45;;;;;;;15.67;2.97;;;9.00;99.90;;;;;;472194;250;27870;-79
2023/01/05 04:23:46;;;;;;;18.87;3.00;;;9.00;99.90;;;;;;472216;250;27854;-79
2023/01/05 04:25:47;;;;;;;17.30;2.97;;;9.00;99.90;;;;;;472225;250;27902;-79
2023/01/05 04:27:48;;;;;;;11.13;2.80;;;9.00;99.90;;;;;;472213;250;28082;-79
2023/01/05 04:29:50;;;;;;;16.67;2.60;;;8.90;99.90;;;;;;472056;250;28446;-79
2023/01/05 04:31:51;;;;;;;13.90;2.70;;;9.00;99.90;;;;;;472220;252;28115;-79
2023/01/05 04:33:52;;;;;;;16.53;3.30;;;9.00;99.90;;;;;;472233;250;28023;-79
2023/01/05 04:35:53;;;;;;;14.10;3.10;;;9.00;99.90;;;;;;472231;251;28248;-79
2023/01/05 04:37:55;;;;;;;13.43;2.87;;;8.90;99.90;;;;;;472251;250;28564;-79
2023/01/05 04:39:56;;;;;;;16.17;3.43;;;9.00;99.90;;;;;;472218;250;28016;-79
2023/01/05 04:41:57;;;;;;;13.37;2.73;;;8.90;99.90;;;;;;472254;250;27506;-79
2023/01/05 04:43:58;;;;;;;15.20;3.53;;;8.90;99.90;;;;;;472255;250;27698;-80
2023/01/05 04:46:00;;;;;;;19.00;3.47;;;8.90;99.90;;;;;;472251;250;27903;-78
2023/01/05 04:48:01;;;;;;;16.30;2.87;;;8.90;99.90;;;;;;472182;251;28087;-78
2023/01/05 04:50:02;;;;;;;17.37;3.00;;;8.90;99.90;;;;;;472187;250;27782;-79
2023/01/05 04:52:03;;;;;;;15.27;2.90;;;8.90;99.90;;;;;;472201;250;27969;-79
2023/01/05 04:54:05;;;;;;;14.00;2.83;;;8.90;99.90;;;;;;472222;251;28370;-80
2023/01/05 04:56:06;;;;;;;15.63;3.20;;;8.90;99.90;;;;;;472217;250;28304;-79
2023/01/05 04:58:07;;;;;;;16.70;3.00;;;8.90;99.90;;;;;;472238;250;27800;-78
2023/01/05 05:00:10;;;;;;;13.23;2.77;;;8.90;99.90;;;;;;472225;250;27945;-80
2023/01/05 05:02:10;;;;;;;11.73;2.80;;;8.90;99.90;;;;;;472148;250;28201;-79
2023/01/05 05:04:11;;;;;;;11.50;3.20;;;8.80;99.90;;;;;;472222;250;27996;-80
2023/01/05 05:06:12;;;;;;;13.03;3.00;;;8.80;99.90;;;;;;472180;250;27932;-79
2023/01/05 05:08:13;;;;;;;15.70;2.90;;;8.80;99.90;;;;;;472135;247;27694;-80
2023/01/05 05:10:16;;;;;;;10.10;2.83;;;8.80;99.90;;;;;;472145;250;27978;-80
2023/01/05 05:12:19;;;;;;;23.90;3.87;;;8.80;99.90;;;;;;472061;250;27835;-80
2023/01/05 05:14:17;;;;;;;14.53;3.40;;;8.70;99.90;;;;;;471985;251;28067;-80
2023/01/05 05:16:18;;;;;;;15.20;3.47;;;8.80;99.90;;;;;;472118;250;27734;-80
2023/01/05 05:18:21;;;;;;;13.67;3.87;;;8.70;99.90;;;;;;472057;252;28524;-79
2023/01/05 05:20:21;;;;;;;21.90;3.40;;;8.70;99.90;;;;;;471934;250;29244;-78
2023/01/05 05:22:22;;;;;;;15.07;3.00;;;8.80;99.90;;;;;;472083;250;28602;-79
2023/01/05 05:24:23;;;;;;;20.93;3.90;;;8.80;99.90;;;;;;472168;251;28361;-80
2023/01/05 05:26:25;;;;;;;13.17;2.87;;;8.80;99.90;;;;;;472147;250;28012;-79
2023/01/05 05:28:29;;;;;;;11.47;2.80;;;8.80;99.90;;;;;;472156;250;27739;-79
2023/01/05 05:30:27;;;;;;;14.33;3.00;;;8.80;99.90;;;;;;471897;251;27915;-79
2023/01/05 05:32:28;;;;;;;11.80;2.93;;;8.80;99.90;;;;;;472237;250;27927;-78
2023/01/05 05:34:30;;;;;;;16.67;3.40;;;8.80;99.90;;;;;;472201;250;28080;-79
2023/01/05 05:36:31;;;;;;;13.53;3.20;;;8.80;99.90;;;;;;472214;250;27680;-79
2023/01/05 05:38:32;;;;;;;23.53;3.60;;;8.80;99.90;;;;;;472201;250;27972;-79
2023/01/05 05:40:34;;;;;;;19.60;2.70;;;8.80;99.90;;;;;;472246;251;28528;-80
2023/01/05 05:42:35;;;;;;;19.70;3.43;;;8.90;99.90;;;;;;472225;250;28017;-80
2023/01/05 05:44:36;;;;;;;19.37;3.30;;;8.90;99.90;;;;;;472189;250;28428;-80
2023/01/05 05:46:37;;;;;;;12.23;3.23;;;8.80;99.90;;;;;;472161;250;28461;-79
2023/01/05 05:48:39;;;;;;;10.67;3.17;;;8.90;99.90;;;;;;472205;250;28503;-79
2023/01/05 05:50:40;;;;;;;16.07;3.73;;;8.90;99.90;;;;;;472229;250;27930;-79
2023/01/05 05:52:41;;;;;;;17.90;3.60;;;8.90;99.90;;;;;;472206;250;27929;-79
2023/01/05 05:54:42;;;;;;;12.57;3.17;;;8.90;99.90;;;;;;472174;250;28124;-80
2023/01/05 05:56:44;;;;;;;14.67;3.00;;;8.90;99.90;;;;;;472182;250;27993;-79
2023/01/05 05:58:45;;;;;;;10.63;2.57;;;8.90;99.90;;;;;;472181;250;27891;-79
2023/01/05 06:00:46;;;;;;;13.73;2.73;;;8.90;99.90;;;;;;472194;250;28205;-79
2023/01/05 06:02:47;;;;;;;18.20;2.83;;;8.80;99.90;;;;;;472218;250;27906;-80
2023/01/05 06:04:49;;;;;;;14.60;3.13;;;8.80;99.90;;;;;;472193;246;27825;-80
2023/01/05 06:06:50;;;;;;;10.50;2.80;;;8.80;99.90;;;;;;472196;250;27804;-79
2023/01/05 06:08:51;;;;;;;14.67;3.17;;;8.90;99.90;;;;;;472173;251;28425;-79
2023/01/05 06:10:52;;;;;;;20.23;3.73;;;8.90;99.90;;;;;;472260;252;28456;-79
2023/01/05 06:12:54;;;;;;;13.87;3.20;;;8.90;99.90;;;;;;472247;251;28353;-79
2023/01/05 06:14:55;;;;;;;14.20;3.87;;;8.90;99.90;;;;;;472213;250;28113;-79
2023/01/05 06:16:56;;;;;;;16.37;4.10;;;8.90;99.90;;;;;;472262;250;27666;-80
2023/01/05 06:18:57;;;;;;;11.93;3.03;;;8.90;99.90;;;;;;472250;250;27933;-80
2023/01/05 06:20:59;;;;;;;10.20;2.50;;;8.90;99.90;;;;;;472270;250;28045;-80
2023/01/05 06:23:00;;;;;;;13.60;3.47;;;8.90;99.90;;;;;;472256;250;27673;-79
2023/01/05 06:25:01;;;;;;;14.70;3.47;;;8.90;99.90;;;;;;472226;250;28081;-79
2023/01/05 06:27:02;;;;;;;12.60;3.13;;;8.90;99.90;;;;;;472184;251;27797;-79
2023/01/05 06:29:04;;;;;;;12.77;2.67;;;8.90;99.90;;;;;;472210;250;27819;-79
2023/01/05 06:31:05;;;;;;;15.70;2.80;;;8.90;99.90;;;;;;472240;250;28052;-79
2023/01/05 06:33:06;;;;;;;13.63;2.80;;;8.90;99.90;;;;;;472222;250;28403;-79
2023/01/05 06:35:07;;;;;;;16.17;2.93;;;8.90;99.90;;;;;;472197;251;28425;-79
2023/01/05 06:37:09;;;;;;;14.63;2.60;;;8.90;99.90;;;;;;472205;250;28209;-80
2023/01/05 06:39:10;;;;;;;19.43;4.20;;;9.00;99.90;;;;;;472211;250;28282;-79
2023/01/05 06:41:11;;;;;;;9.17;2.20;;;9.00;99.90;;;;;;472242;250;28198;-79
2023/01/05 06:43:12;;;;;;;14.13;2.70;;;9.00;99.90;;;;;;472219;250;27911;-80
2023/01/05 06:45:14;;;;;;;10.37;2.47;;;9.00;99.90;;;;;;472204;247;28126;-79
2023/01/05 06:47:15;;;;;;;14.37;2.77;;;9.00;99.90;;;;;;472181;250;27996;-79
2023/01/05 06:49:16;;;;;;;15.60;3.10;;;9.00;99.90;;;;;;472217;250;27742;-79
2023/01/05 06:51:17;;;;;;;16.80;3.23;;;9.00;99.90;;;;;;472236;250;27820;-79
2023/01/05 06:53:19;;;;;;;16.90;3.17;;;9.00;99.90;;;;;;472204;250;27915;-79
2023/01/05 06:55:20;;;;;;;14.53;3.10;;;9.00;99.90;;;;;;472083;250;27950;-79
2023/01/05 06:57:21;;;;;;;17.47;3.23;;;9.00;99.90;;;;;;472183;250;27694;-80
2023/01/05 06:59:22;;;;;;;26.57;3.73;;;8.90;99.90;;;;;;472115;250;28441;-79
2023/01/05 07:01:24;;;;;;;12.30;3.40;;;8.90;99.90;;;;;;472171;250;28533;-79
2023/01/05 07:03:25;;;;;;;16.40;3.30;;;8.90;99.90;;;;;;472198;250;28349;-79
2023/01/05 07:05:26;;;;;;;19.10;3.13;;;8.90;99.90;;;;;;472176;250;27934;-79
2023/01/05 07:07:27;;;;;;;11.10;2.83;;;8.90;99.90;;;;;;472204;250;27490;-79
2023/01/05 07:09:29;;;;;;;10.70;2.73;;;8.90;99.90;;;;;;472223;251;28037;-79
2023/01/05 07:11:30;;;;;;;7.80;3.03;;;8.90;99.90;;;;;;472228;250;27577;-79
2023/01/05 07:13:31;;;;;;;10.60;2.97;;;8.90;99.90;;;;;;472209;247;27970;-80
2023/01/05 07:15:32;;;;;;;18.13;3.30;;;8.90;99.90;;;;;;472188;248;28031;-79
2023/01/05 07:17:35;;;;;;;11.43;2.73;;;8.80;99.90;;;;;;472199;247;28285;-80
2023/01/05 07:19:35;;;;;;;12.87;3.20;;;8.80;99.90;;;;;;472199;250;28035;-79
2023/01/05 07:21:36;;;;;;;15.87;3.17;;;8.80;99.90;;;;;;472236;250;28021;-79
2023/01/05 07:23:37;;;;;;;15.90;3.50;;;8.80;99.90;;;;;;472203;250;28355;-79
2023/01/05 07:25:39;;;;;;;20.37;2.70;;;8.80;99.90;;;;;;472195;250;28582;-79
2023/01/05 07:27:40;;;;;;;10.60;2.90;;;8.80;99.90;;;;;;472180;250;28301;-79
2023/01/05 07:29:41;;;;;;;15.70;3.10;;;8.90;99.90;;;;;;472231;247;28422;-79
2023/01/05 07:31:42;;;;;;;6.60;2.67;;;8.80;99.90;;;;;;472177;251;28056;-80
2023/01/05 07:33:44;;;;;;;11.63;2.33;;;8.80;99.90;;;;;;472214;250;27801;-80
2023/01/05 07:35:45;;;;;;;10.73;2.60;;;8.80;99.90;;;;;;472216;250;28063;-79
2023/01/05 07:37:46;;;;;;;8.13;2.70;;;8.80;99.90;;;;;;472239;250;27527;-80
2023/01/05 07:39:47;;;;;;;11.77;3.00;;;8.80;99.90;;;;;;472258;250;27685;-80
2023/01/05 07:41:49;;;;;;;14.13;3.63;;;8.80;99.90;;;;;;472264;250;28081;-80
2023/01/05 07:43:50;;;;;;;12.70;3.20;;;8.80;99.90;;;;;;472187;251;27893;-79
2023/01/05 07:45:51;;;;;;;15.87;3.00;;;8.80;99.90;;;;;;472100;247;27801;-80
2023/01/05 07:47:52;;;;;;;10.80;3.30;;;8.80;99.90;;;;;;472096;250;28007;-79
2023/01/05 07:49:54;;;;;;;9.07;2.70;;;8.80;99.90;;;;;;472147;250;28270;-80
2023/01/05 07:51:55;;;;;;;10.53;2.50;;;8.80;99.90;;;;;;472168;250;28632;-80
2023/01/05 07:53:56;;;;;;;12.10;2.97;;;8.80;99.90;;;;;;472096;252;28161;-81
2023/01/05 07:55:57;;;;;;;14.60;2.80;;;8.80;99.90;;;;;;472630;250;28040;-81
2023/01/05 07:57:59;;;;;;;19.20;3.20;;;8.80;99.90;;;;;;472674;250;27987;-81
2023/01/05 08:00:00;;;;;;;13.30;2.73;;;8.80;99.90;;;;;;472678;250;28054;-81
2023/01/05 08:02:01;;;;;;;13.10;3.07;;;8.90;99.90;;;;;;472604;250;28005;-81
2023/01/05 08:04:02;;;;;;;12.13;2.63;;;8.90;99.90;;;;;;472470;250;27871;-79
2023/01/05 08:06:04;;;;;;;11.93;2.70;;;8.90;99.90;;;;;;472366;250;28029;-80
2023/01/05 08:08:05;;;;;;;15.20;3.77;;;8.90;99.90;;;;;;472367;250;27923;-80
2023/01/05 08:12:26;;;;;;;18.93;4.27;;;8.90;99.90;;;;;;472208;252;28549;-79
2023/01/05 08:14:27;;;;;;;15.50;2.80;;;8.90;99.90;;;;;;472245;247;28388;-80
2023/01/05 08:16:29;;;;;;;18.93;3.50;;;8.90;99.90;;;;;;472258;247;28381;-80
2023/01/05 08:18:30;;;;;;;24.30;3.40;;;9.00;99.90;;;;;;472253;251;28038;-80
2023/01/05 08:20:31;;;;;;;10.17;2.80;;;8.90;99.90;;;;;;472279;250;27584;-81
2023/01/05 08:22:32;;;;;;;16.60;3.07;;;8.90;99.90;;;;;;472208;250;28081;-81
2023/01/05 08:24:33;;;;;;;13.60;3.33;;;8.90;99.90;;;;;;472165;250;27667;-81
2023/01/05 08:26:35;;;;;;;10.43;2.87;;;8.90;99.90;;;;;;472222;250;27837;-81
2023/01/05 08:28:36;;;;;;;12.43;3.60;;;8.90;99.90;;;;;;472262;250;28166;-82
2023/01/05 08:30:37;;;;;;;15.77;4.23;;;8.90;99.90;;;;;;472241;250;28051;-81
2023/01/05 08:32:38;;;;;;;19.73;3.70;;;9.00;99.90;;;;;;472237;250;27983;-81
2023/01/05 08:34:40;;;;;;;11.07;2.90;;;9.00;99.90;;;;;;472238;250;27534;-81
2023/01/05 08:36:41;;;;;;;22.63;4.57;;;9.00;99.90;;;;;;472173;251;28674;-81
2023/01/05 08:38:48;;;;;;;15.33;3.30;;;9.10;99.90;;;;;;472221;252;28563;-81
2023/01/05 08:40:49;;;;;;;19.03;3.37;;;9.00;99.90;;;;;;472181;250;27990;-79
2023/01/05 08:42:50;;;;;;;11.77;3.17;;;9.00;99.90;;;;;;472255;250;27872;-80
2023/01/05 08:44:52;;;;;;;17.10;3.37;;;9.00;99.90;;;;;;472195;250;28593;-81
2023/01/05 08:46:53;;;;;;;16.83;3.20;;;9.10;99.90;;;;;;472173;250;28304;-81
2023/01/05 08:48:54;;;;;;;15.50;4.27;;;9.10;99.90;;;;;;472195;250;28068;-81
2023/01/05 08:50:55;;;;;;;15.97;3.23;;;9.10;99.90;;;;;;472223;250;27455;-81
2023/01/05 08:52:57;;;;;;;14.77;3.30;;;9.10;99.90;;;;;;472221;250;28106;-80
2023/01/05 08:54:58;;;;;;;18.87;3.80;;;9.10;99.90;;;;;;472222;250;27865;-81
2023/01/05 08:56:59;;;;;;;9.40;3.27;;;9.10;99.90;;;;;;472236;250;27846;-81
2023/01/05 08:59:00;;;;;;;20.17;3.60;;;9.20;99.90;;;;;;472232;250;27896;-80
2023/01/05 09:01:02;;;;;;;11.70;3.07;;;9.20;99.90;;;;;;472228;250;27721;-80
2023/01/05 09:03:03;;;;;;;17.23;3.90;;;9.20;99.90;;;;;;472238;250;28034;-80
2023/01/05 09:05:04;;;;;;;21.07;4.00;;;9.20;99.90;;;;;;472238;250;27553;-81
2023/01/05 09:07:05;;;;;;;14.73;3.00;;;9.20;99.90;;;;;;472244;251;28048;-81
2023/01/05 09:09:07;;;;;;;13.37;2.80;;;9.20;99.90;;;;;;472295;250;28340;-81
2023/01/05 09:11:08;;;;;;;11.47;3.30;;;9.20;99.90;;;;;;472224;250;28446;-81
2023/01/05 09:13:10;;;;;;;23.27;4.17;;;9.20;99.90;;;;;;472259;250;28474;-81
2023/01/05 09:15:10;;;;;;;20.67;3.03;;;9.30;99.90;;;;;;472205;252;28073;-81
2023/01/05 09:17:12;;;;;;;17.93;3.93;;;9.30;99.90;;;;;;472246;250;27960;-81
2023/01/05 09:19:13;;;;;;;18.27;3.60;;;9.30;99.90;;;;;;472212;246;28003;-81
2023/01/05 09:21:14;;;;;;;20.83;4.10;;;9.40;99.90;;;;;;472235;250;27964;-81
2023/01/05 09:23:15;;;;;;;18.87;3.53;;;9.40;99.90;;;;;;472256;251;28433;-81
2023/01/05 09:25:17;;;;;;;13.43;3.60;;;9.40;99.90;;;;;;472217;250;27926;-80
2023/01/05 09:27:18;;;;;;;16.70;4.03;;;9.40;99.90;;;;;;472200;250;28057;-81
2023/01/05 09:29:19;;;;;;;16.80;3.47;;;9.40;99.90;;;;;;472225;251;27912;-81
2023/01/05 09:31:20;;;;;;;26.63;4.93;;;9.40;99.90;;;;;;472219;250;27915;-81
2023/01/05 09:33:22;;;;;;;14.43;3.90;;;9.40;99.90;;;;;;472207;250;28458;-81
2023/01/05 09:35:23;;;;;;;13.70;3.43;;;9.40;99.90;;;;;;472138;251;28529;-82
2023/01/05 09:37:24;;;;;;;15.90;3.97;;;9.40;99.90;;;;;;472056;251;28747;-81
2023/01/05 09:39:25;;;;;;;19.97;4.00;;;9.30;99.90;;;;;;472217;247;28607;-81
2023/01/05 09:41:27;;;;;;;12.73;3.40;;;9.30;99.90;;;;;;472075;252;27985;-81
2023/01/05 09:43:28;;;;;;;21.27;4.33;;;9.40;99.90;;;;;;472188;247;27938;-80
2023/01/05 09:45:31;;;;;;;14.57;4.03;;;9.40;99.90;;;;;;472240;250;28016;-82
2023/01/05 09:47:32;;;;;;;13.40;3.60;;;9.50;99.90;;;;;;472213;250;28536;-80
2023/01/05 09:49:34;;;;;;;21.20;3.80;;;9.50;99.90;;;;;;472197;250;29003;-80
2023/01/05 09:51:35;;;;;;;18.17;3.73;;;9.50;99.90;;;;;;472238;250;28394;-81
2023/01/05 09:53:36;;;;;;;19.30;3.80;;;9.50;99.90;;;;;;472269;250;28624;-81
2023/01/05 09:55:39;;;;;;;10.53;3.53;;;9.50;99.90;;;;;;472254;250;27857;-80
2023/01/05 09:57:41;;;;;;;9.20;2.73;;;9.50;99.90;;;;;;472169;250;27957;-81
2023/01/05 09:59:42;;;;;;;16.90;3.17;;;9.50;99.90;;;;;;472239;250;28040;-80
2023/01/05 10:01:43;;;;;;;18.57;4.50;;;9.50;99.90;;;;;;472258;250;28455;-81
2023/01/05 10:03:44;;;;;;;18.07;3.50;;;9.50;99.90;;;;;;472272;250;27802;-82
2023/01/05 10:05:46;;;;;;;12.27;3.20;;;9.60;99.90;;;;;;472218;251;28382;-81
2023/01/05 10:07:47;;;;;;;14.57;3.40;;;9.60;99.90;;;;;;472222;252;27577;-81
2023/01/05 10:09:48;;;;;;;24.23;4.03;;;9.70;99.90;;;;;;472239;250;27854;-81
2023/01/05 10:14:09;;;;;;;14.10;3.17;;;9.90;99.90;;;;;;472209;252;28305;-81
2023/01/05 10:16:10;;;;;;;18.70;4.13;;;9.90;99.90;;;;;;472255;250;28458;-81
2023/01/05 10:18:12;;;;;;;11.97;3.63;;;9.90;99.90;;;;;;472242;250;28086;-80
2023/01/05 10:20:13;;;;;;;13.30;3.53;;;9.80;99.90;;;;;;472122;251;28051;-82
2023/01/05 10:22:14;;;;;;;19.43;4.50;;;9.80;99.90;;;;;;472212;250;27914;-80
2023/01/05 10:24:15;;;;;;;26.93;4.73;;;9.80;99.90;;;;;;472223;250;28425;-81
2023/01/05 10:26:17;;;;;;;14.47;4.00;;;9.80;99.90;;;;;;472227;250;29405;-80
2023/01/05 10:28:18;;;;;;;17.00;4.00;;;9.80;99.90;;;;;;472079;250;28668;-81
2023/01/05 10:30:19;;;;;;;11.30;3.43;;;9.80;99.90;;;;;;472182;249;28073;-82
2023/01/05 10:32:20;;;;;;;20.77;4.23;;;9.70;99.90;;;;;;472226;251;27422;-81
2023/01/05 10:34:22;;;;;;;17.73;4.27;;;9.70;99.90;;;;;;472160;250;28201;-81
2023/01/05 10:36:24;;;;;;;19.43;4.30;;;9.70;99.90;;;;;;472183;250;27862;-80
2023/01/05 10:38:24;;;;;;;19.47;4.03;;;9.70;99.90;;;;;;472131;250;27808;-80
2023/01/05 10:40:27;;;;;;;18.87;4.10;;;9.70;99.90;;;;;;472232;250;28157;-81
2023/01/05 10:42:27;;;;;;;15.70;4.00;;;9.70;99.90;;;;;;472186;252;27919;-80
2023/01/05 10:44:28;;;;;;;20.97;3.30;;;9.60;99.90;;;;;;472226;250;28118;-80
2023/01/05 10:46:29;;;;;;;18.03;4.23;;;9.70;99.90;;;;;;472240;250;28015;-80
2023/01/05 10:48:30;;;;;;;17.33;3.50;;;9.70;99.90;;;;;;472222;251;28421;-80
2023/01/05 10:50:32;;;;;;;13.70;4.20;;;9.70;99.90;;;;;;472343;251;28444;-80
2023/01/05 10:52:33;;;;;;;17.37;4.00;;;9.70;99.90;;;;;;472288;250;28437;-81
2023/01/05 10:54:34;;;;;;;11.20;3.57;;;9.70;99.90;;;;;;472249;247;28082;-79
2023/01/05 10:56:35;;;;;;;16.73;3.93;;;9.70;99.90;;;;;;472273;250;28052;-79
2023/01/05 10:58:40;;;;;;;15.70;4.10;;;9.70;99.90;;;;;;472294;251;27554;-80
2023/01/05 11:00:41;;;;;;;15.90;3.67;;;9.80;99.90;;;;;;472293;250;27915;-80
2023/01/05 11:02:42;;;;;;;22.23;4.23;;;9.80;99.90;;;;;;472294;250;27823;-80
2023/01/05 11:04:43;;;;;;;16.37;3.87;;;9.80;99.90;;;;;;472148;252;27907;-81
2023/01/05 11:06:45;;;;;;;22.30;4.10;;;9.80;99.90;;;;;;472295;250;27898;-80
2023/01/05 11:08:48;;;;;;;15.60;3.40;;;9.80;99.90;;;;;;472253;250;27963;-80
2023/01/05 11:10:49;;;;;;;14.27;3.40;;;9.80;99.90;;;;;;472291;252;27799;-80